Time;durP1;ratioP1;P1;durP2;ratioP2;P2;SDS_P1;SDS_P2;PMS_P1;PMS_P2;Temp;Humidity;BMP_temperature;BMP_pressure;BME280_temperature;BME280_humidity;BME280_pressure;Samples;Min_cycle;Max_cycle;Signal;HPM_P1;HPM_P2
2022/03/03 00:00:28;;;;;;;0.20;0.20;;;;;;;20.11;34.81;101642.53;5143602;27;20057;-36
2022/03/03 00:02:54;;;;;;;0.20;0.20;;;;;;;20.09;34.73;101640.03;5144127;27;21241;-37
2022/03/03 00:05:20;;;;;;;0.20;0.20;;;;;;;20.10;34.92;101636.16;5152405;27;20081;-33
2022/03/03 00:07:46;;;;;;;0.20;0.20;;;;;;;20.09;34.84;101637.28;5144097;27;20039;-38
2022/03/03 00:10:11;;;;;;;0.20;0.20;;;;;;;20.10;34.77;101636.16;5142900;27;20454;-37
2022/03/03 00:12:37;;;;;;;0.20;0.20;;;;;;;20.11;34.64;101637.81;5141959;27;20050;-36
2022/03/03 00:15:04;;;;;;;0.20;0.20;;;;;;;20.09;34.84;101642.81;5117170;27;20505;-34
2022/03/03 00:17:31;;;;;;;0.20;0.20;;;;;;;20.08;34.60;101635.63;5131551;27;20390;-35
2022/03/03 00:19:56;;;;;;;0.20;0.20;;;;;;;20.08;34.84;101635.63;5136268;27;20462;-34
2022/03/03 00:22:22;;;;;;;0.20;0.20;;;;;;;20.09;34.56;101634.50;5131231;27;20084;-36
2022/03/03 00:24:49;;;;;;;0.20;0.20;;;;;;;20.08;34.89;101632.84;5134115;27;20074;-33
2022/03/03 00:27:14;;;;;;;0.20;0.20;;;;;;;20.08;34.72;101638.38;5125395;28;20075;-41
2022/03/03 00:29:40;;;;;;;0.20;0.20;;;;;;;20.07;35.06;101636.69;5127215;28;20039;-35
2022/03/03 00:32:06;;;;;;;0.20;0.20;;;;;;;20.09;34.54;101631.75;5124294;28;20394;-39
2022/03/03 00:34:32;;;;;;;0.20;0.20;;;;;;;20.09;34.50;101633.69;5127173;28;20151;-36
2022/03/03 00:36:58;;;;;;;0.20;0.20;;;;;;;20.08;34.58;101620.94;5125024;28;20038;-38
2022/03/03 00:39:24;;;;;;;0.20;0.20;;;;;;;20.08;34.67;101623.69;5126276;28;20092;-34
2022/03/03 00:41:49;;;;;;;0.20;0.20;;;;;;;20.08;35.00;101616.25;5123560;28;20043;-36
2022/03/03 00:44:15;;;;;;;0.20;0.20;;;;;;;20.07;34.87;101614.56;5126635;28;20047;-35
2022/03/03 00:46:41;;;;;;;0.20;0.20;;;;;;;20.08;34.72;101619.03;5124660;28;20039;-35
2022/03/03 00:49:07;;;;;;;0.20;0.20;;;;;;;20.08;34.70;101613.50;5126168;28;20040;-36
2022/03/03 00:51:34;;;;;;;0.20;0.20;;;;;;;20.08;34.79;101607.97;5124846;28;20089;-35
2022/03/03 00:53:59;;;;;;;0.20;0.20;;;;;;;20.07;34.92;101614.56;5125707;28;20482;-37
2022/03/03 00:56:25;;;;;;;0.20;0.20;;;;;;;20.07;34.79;101614.56;5125129;28;20039;-36
2022/03/03 00:58:51;;;;;;;0.20;0.20;;;;;;;20.09;35.06;101614.31;5126042;28;20425;-38
2022/03/03 01:01:17;;;;;;;0.20;0.20;;;;;;;20.08;34.82;101612.63;5122039;28;21176;-35
2022/03/03 01:03:43;;;;;;;0.20;0.20;;;;;;;20.07;34.95;101617.34;5108141;28;20043;-34
2022/03/03 01:06:10;;;;;;;0.20;0.20;;;;;;;20.06;34.66;101610.16;5124627;28;20100;-34
2022/03/03 01:08:36;;;;;;;0.20;0.20;;;;;;;20.05;34.95;101609.31;5125236;28;20043;-35
2022/03/03 01:11:03;;;;;;;0.20;0.20;;;;;;;20.07;35.04;101610.97;5123660;28;20047;-32
2022/03/03 01:13:28;;;;;;;0.20;0.20;;;;;;;20.07;34.67;101609.03;5125843;28;20101;-34
2022/03/03 01:15:54;;;;;;;0.20;0.20;;;;;;;20.08;34.91;101601.56;5125710;28;20523;-34
2022/03/03 01:18:20;;;;;;;0.20;0.20;;;;;;;20.09;34.90;101606.84;5124568;28;20046;-34
2022/03/03 01:20:46;;;;;;;0.20;0.20;;;;;;;20.07;34.88;101602.69;5122925;28;20047;-39
2022/03/03 01:23:12;;;;;;;0.20;0.20;;;;;;;20.06;34.76;101604.63;5126027;28;20147;-39
2022/03/03 01:25:37;;;;;;;0.20;0.20;;;;;;;20.05;34.75;101606.56;5124656;27;20061;-39
2022/03/03 01:28:04;;;;;;;0.20;0.20;;;;;;;20.06;34.91;101607.38;5122737;28;20105;-38
2022/03/03 01:30:29;;;;;;;0.20;0.20;;;;;;;20.06;35.09;101604.63;5125536;28;20078;-35
2022/03/03 01:32:55;;;;;;;0.20;0.20;;;;;;;20.04;35.10;101599.38;5123198;28;20047;-34
2022/03/03 01:35:21;;;;;;;0.20;0.20;;;;;;;20.07;34.92;101603.50;5125436;28;20047;-32
2022/03/03 01:37:46;;;;;;;0.20;0.20;;;;;;;20.06;34.84;101599.09;5123619;28;20043;-40
2022/03/03 01:40:12;;;;;;;0.20;0.20;;;;;;;20.05;34.88;101601.03;5124602;28;20490;-33
2022/03/03 01:42:38;;;;;;;0.20;0.20;;;;;;;20.04;35.17;101599.38;5123471;28;20596;-35
2022/03/03 01:45:04;;;;;;;0.20;0.20;;;;;;;20.05;35.03;101589.13;5126064;28;20719;-35
2022/03/03 01:47:31;;;;;;;0.20;0.20;;;;;;;20.04;35.06;101590.25;5124366;28;20053;-39
2022/03/03 01:49:57;;;;;;;0.20;0.20;;;;;;;20.05;34.87;101583.63;5125035;28;20051;-36
2022/03/03 01:52:23;;;;;;;0.20;0.20;;;;;;;20.04;34.92;101574.50;5123063;28;20078;-31
2022/03/03 01:54:50;;;;;;;0.20;0.20;;;;;;;20.02;35.22;101573.91;5125299;27;20053;-35
2022/03/03 01:57:17;;;;;;;0.20;0.20;;;;;;;20.03;34.78;101572.84;5121847;28;20043;-39
2022/03/03 01:59:43;;;;;;;0.20;0.20;;;;;;;20.05;34.76;101578.09;5104983;28;20086;-34
2022/03/03 02:02:10;;;;;;;0.20;0.20;;;;;;;20.03;35.24;101581.13;5122746;28;20044;-34
2022/03/03 02:04:38;;;;;;;0.20;0.20;;;;;;;20.04;35.18;101573.66;5125573;28;20375;-40
2022/03/03 02:07:04;;;;;;;0.20;0.20;;;;;;;20.04;35.11;101568.13;5123116;28;20063;-35
2022/03/03 02:09:30;;;;;;;0.20;0.20;;;;;;;20.04;34.79;101579.19;5124050;28;20419;-39
2022/03/03 02:11:56;;;;;;;0.20;0.20;;;;;;;20.03;34.77;101580.28;5123157;28;20298;-35
2022/03/03 02:14:22;;;;;;;0.20;0.20;;;;;;;20.03;35.00;101575.59;5125054;28;20071;-34
2022/03/03 02:16:47;;;;;;;0.20;0.20;;;;;;;20.04;34.92;101573.66;5122740;28;20197;-38
2022/03/03 02:19:17;;;;;;;0.20;0.20;;;;;;;20.03;34.97;101570.06;5124561;28;20452;-33
2022/03/03 02:21:51;;;;;;;0.20;0.20;;;;;;;20.04;35.08;101570.91;5122301;28;20067;-39
2022/03/03 02:24:18;;;;;;;0.20;0.20;;;;;;;20.03;34.85;101567.31;5125177;28;20290;-38
2022/03/03 02:26:44;;;;;;;0.20;0.20;;;;;;;20.04;34.91;101562.59;5124300;28;20061;-38
2022/03/03 02:29:09;;;;;;;0.20;0.20;;;;;;;20.04;35.02;101554.31;5122813;28;20047;-35
2022/03/03 02:31:35;;;;;;;0.20;0.20;;;;;;;20.04;35.01;101557.06;5121670;28;20178;-37
2022/03/03 02:34:01;;;;;;;0.20;0.20;;;;;;;20.03;35.16;101553.47;5125090;28;20050;-39
2022/03/03 02:36:28;;;;;;;0.20;0.20;;;;;;;20.04;34.83;101555.13;5122012;27;20047;-37
2022/03/03 02:38:56;;;;;;;0.20;0.20;;;;;;;20.02;34.80;101543.50;5122999;28;20096;-40
2022/03/03 02:41:22;;;;;;;;;;;;;;;20.03;35.22;101547.94;5122914;28;20535;-37
2022/03/03 02:43:48;;;;;;;0.20;0.20;;;;;;;20.02;34.90;101543.50;5123565;28;19927;-34
2022/03/03 02:46:14;;;;;;;0.20;0.20;;;;;;;20.01;34.93;101539.06;5123960;28;20043;-35
2022/03/03 02:48:40;;;;;;;0.20;0.20;;;;;;;20.02;35.29;101543.50;5121133;28;20050;-35
2022/03/03 02:51:06;;;;;;;0.20;0.20;;;;;;;20.03;34.83;101541.56;5121239;28;20497;-36
2022/03/03 02:53:33;;;;;;;0.20;0.20;;;;;;;20.02;34.88;101542.66;5121660;27;20074;-39
2022/03/03 02:55:58;;;;;;;0.10;0.10;;;;;;;20.02;34.92;101539.91;5124258;28;20566;-32
2022/03/03 02:58:24;;;;;;;0.20;0.20;;;;;;;20.02;35.11;101531.63;5121743;28;20134;-35
2022/03/03 03:00:50;;;;;;;0.20;0.20;;;;;;;20.02;34.88;101532.44;5121305;28;20047;-36
2022/03/03 03:03:17;;;;;;;0.20;0.20;;;;;;;20.02;35.05;101537.97;5124920;28;20108;-36
2022/03/03 03:05:44;;;;;;;0.20;0.20;;;;;;;20.03;34.95;101531.34;5124315;28;20222;-39
2022/03/03 03:08:10;;;;;;;0.20;0.20;;;;;;;20.01;34.88;101525.25;5105313;28;20422;-34
2022/03/03 03:10:36;;;;;;;0.20;0.20;;;;;;;20.02;35.26;101531.63;5105051;28;20051;-38
2022/03/03 03:13:02;;;;;;;0.20;0.20;;;;;;;20.01;35.18;101527.19;5122899;28;20055;-37
2022/03/03 03:15:28;;;;;;;0.20;0.20;;;;;;;20.01;34.90;101525.25;5123831;28;20039;-34
2022/03/03 03:17:54;;;;;;;0.20;0.20;;;;;;;20.01;35.27;101528.03;5122440;28;20055;-34
2022/03/03 03:20:20;;;;;;;0.20;0.20;;;;;;;20.02;35.05;101523.31;5124082;28;20043;-34
2022/03/03 03:22:46;;;;;;;0.20;0.20;;;;;;;20.01;35.15;101518.91;5122947;28;20395;-35
2022/03/03 03:25:13;;;;;;;0.20;0.20;;;;;;;20.01;34.81;101518.91;5124075;28;20099;-35
2022/03/03 03:27:41;;;;;;;0.20;0.20;;;;;;;20.01;34.96;101516.97;5123043;28;20402;-34
2022/03/03 03:30:10;;;;;;;0.10;0.10;;;;;;;20.01;34.95;101516.97;5122585;28;20078;-37
2022/03/03 03:32:36;;;;;;;0.13;0.13;;;;;;;20.02;34.93;101512.25;5121801;28;20117;-33
2022/03/03 03:35:04;;;;;;;0.20;0.20;;;;;;;20.02;35.17;101509.50;5124027;28;20047;-36
2022/03/03 03:37:31;;;;;;;0.20;0.20;;;;;;;20.01;34.73;101505.91;5122433;28;20331;-33
2022/03/03 03:39:56;;;;;;;0.20;0.20;;;;;;;20.01;34.90;101508.66;5123330;28;20593;-35
2022/03/03 03:42:22;;;;;;;0.20;0.20;;;;;;;20.01;35.22;101514.19;5123241;28;20039;-35
2022/03/03 03:44:48;;;;;;;0.20;0.20;;;;;;;20.00;35.16;101512.53;5123389;28;20043;-34
2022/03/03 03:47:14;;;;;;;0.20;0.20;;;;;;;20.03;35.28;101516.69;5122709;27;20466;-34
2022/03/03 03:49:40;;;;;;;0.20;0.20;;;;;;;20.00;35.07;101518.06;5125339;28;20562;-36
2022/03/03 03:52:06;;;;;;;0.20;0.20;;;;;;;19.99;35.02;101513.66;5125277;28;20043;-37
2022/03/03 03:54:31;;;;;;;0.20;0.20;;;;;;;19.98;34.97;101517.50;5127002;27;20137;-36
2022/03/03 03:56:57;;;;;;;0.20;0.20;;;;;;;20.00;35.19;101511.72;5126198;28;20550;-34
2022/03/03 03:59:23;;;;;;;0.20;0.20;;;;;;;20.00;35.13;101501.47;5107461;28;20043;-34
2022/03/03 04:01:48;;;;;;;0.20;0.20;;;;;;;20.00;35.35;101507.00;5124439;28;20051;-35
2022/03/03 04:04:14;;;;;;;0.20;0.20;;;;;;;19.99;35.15;101510.03;5110320;28;20039;-33
2022/03/03 04:06:40;;;;;;;0.20;0.20;;;;;;;19.98;34.98;101506.44;5126727;28;20435;-34
2022/03/03 04:09:06;;;;;;;0.20;0.20;;;;;;;19.99;35.39;101510.03;5126786;28;20043;-34
2022/03/03 04:11:32;;;;;;;0.20;0.20;;;;;;;20.00;34.92;101500.66;5125728;28;20470;-37
2022/03/03 04:13:57;;;;;;;0.13;0.13;;;;;;;19.99;35.19;101505.34;5127525;28;20074;-32
2022/03/03 04:16:25;;;;;;;0.20;0.20;;;;;;;19.98;35.29;101506.44;5108520;28;20057;-34
2022/03/03 04:18:51;;;;;;;0.20;0.20;;;;;;;19.98;35.00;101498.16;5126177;28;20043;-38
2022/03/03 04:21:16;;;;;;;0.20;0.20;;;;;;;19.98;35.28;101489.84;5124420;28;20728;-34
2022/03/03 04:23:42;;;;;;;0.20;0.20;;;;;;;19.96;35.08;101491.25;5127237;28;20050;-36
2022/03/03 04:26:08;;;;;;;0.20;0.20;;;;;;;19.98;35.22;101489.84;5127063;28;20530;-36
2022/03/03 04:28:34;;;;;;;0.20;0.20;;;;;;;19.99;35.33;101487.91;5124927;28;20043;-36
2022/03/03 04:30:59;;;;;;;0.20;0.20;;;;;;;19.97;35.17;101493.72;5124434;28;20393;-38
2022/03/03 04:33:25;;;;;;;0.20;0.20;;;;;;;19.98;35.38;101483.50;5126235;28;20094;-36
2022/03/03 04:35:51;;;;;;;0.20;0.20;;;;;;;19.97;35.24;101479.06;5125519;28;20050;-34
2022/03/03 04:38:16;;;;;;;0.20;0.20;;;;;;;19.97;35.13;101468.00;5126458;28;20039;-38
2022/03/03 04:40:42;;;;;;;0.20;0.20;;;;;;;19.97;35.23;101470.78;5125036;28;20437;-36
2022/03/03 04:43:08;;;;;;;0.20;0.20;;;;;;;19.98;35.20;101469.66;5124740;28;20066;-35
2022/03/03 04:45:34;;;;;;;0.20;0.20;;;;;;;19.97;34.98;101459.72;5127776;28;20470;-32
2022/03/03 04:48:00;;;;;;;0.20;0.20;;;;;;;19.99;35.22;101457.50;5125068;28;20057;-37
2022/03/03 04:50:27;;;;;;;0.20;0.20;;;;;;;19.97;35.34;101456.97;5125416;28;20422;-32
2022/03/03 04:52:53;;;;;;;0.20;0.20;;;;;;;19.98;35.16;101444.78;5105169;28;20093;-33
2022/03/03 04:55:18;;;;;;;0.20;0.20;;;;;;;19.97;35.35;101448.66;5126783;28;20043;-35
2022/03/03 04:57:44;;;;;;;0.20;0.20;;;;;;;19.99;34.99;101451.97;5125595;28;20142;-36
2022/03/03 05:00:10;;;;;;;0.20;0.20;;;;;;;19.96;35.17;101453.38;5126544;27;20081;-31
2022/03/03 05:02:36;;;;;;;0.20;0.20;;;;;;;19.96;35.02;101447.84;5124133;28;20469;-33
2022/03/03 05:05:03;;;;;;;0.20;0.20;;;;;;;19.96;35.08;101444.25;5126575;28;20484;-34
2022/03/03 05:07:29;;;;;;;0.20;0.20;;;;;;;19.96;34.99;101439.53;5125935;28;20039;-31
2022/03/03 05:09:55;;;;;;;0.20;0.20;;;;;;;19.97;35.38;101440.38;5126528;28;21518;-34
2022/03/03 05:12:21;;;;;;;0.20;0.20;;;;;;;19.95;35.07;101439.84;5125282;28;20175;-31
2022/03/03 05:14:46;;;;;;;0.20;0.20;;;;;;;19.96;35.22;101441.47;5127488;28;20091;-34
2022/03/03 05:17:12;;;;;;;0.30;0.30;;;;;;;19.97;35.33;101440.38;5125506;28;20640;-36
2022/03/03 05:19:38;;;;;;;0.20;0.20;;;;;;;19.96;35.10;101433.19;5126270;28;20118;-37
2022/03/03 05:22:03;;;;;;;0.20;0.20;;;;;;;19.96;35.06;101434.00;5125214;28;20043;-34
2022/03/03 05:24:29;;;;;;;0.20;0.20;;;;;;;19.96;35.42;101438.72;5125516;28;20047;-34
2022/03/03 05:26:55;;;;;;;0.20;0.20;;;;;;;19.97;35.02;101449.50;5125342;28;20043;-32
2022/03/03 05:29:20;;;;;;;0.20;0.20;;;;;;;19.97;35.31;101437.59;5125758;28;20039;-34
2022/03/03 05:31:46;;;;;;;0.20;0.20;;;;;;;19.96;35.44;101441.47;5122806;28;20047;-35
2022/03/03 05:34:12;;;;;;;0.20;0.20;;;;;;;19.97;35.45;101440.38;5126389;28;20035;-32
2022/03/03 05:36:40;;;;;;;0.20;0.20;;;;;;;19.95;35.21;101450.88;5125068;28;20043;-33
2022/03/03 05:39:06;;;;;;;0.20;0.20;;;;;;;19.96;35.29;101441.47;5124518;28;20363;-36
2022/03/03 05:41:32;;;;;;;0.20;0.20;;;;;;;19.96;35.25;101453.38;5124151;28;20439;-34
2022/03/03 05:43:58;;;;;;;0.17;0.17;;;;;;;19.94;35.24;101458.31;5126310;28;20062;-33
2022/03/03 05:46:24;;;;;;;0.20;0.20;;;;;;;19.97;35.08;101465.25;5125368;28;20473;-31
2022/03/03 05:48:50;;;;;;;0.20;0.20;;;;;;;19.97;35.16;101459.72;5124477;28;20433;-31
2022/03/03 05:51:17;;;;;;;0.20;0.20;;;;;;;19.96;35.18;101458.91;5122605;28;20481;-33
2022/03/03 05:53:43;;;;;;;0.20;0.20;;;;;;;19.98;35.20;101455.84;5106859;28;20043;-34
2022/03/03 05:56:10;;;;;;;0.20;0.20;;;;;;;19.96;35.48;101453.38;5126383;28;20512;-31
2022/03/03 06:01:21;;;;;;;0.20;0.20;;;;;;;19.99;35.20;101444.53;5165439;27;20497;-33
2022/03/03 06:03:48;;;;;;;0.20;0.20;;;;;;;20.01;35.18;101450.59;5142580;27;20377;-31
2022/03/03 06:06:18;;;;;;;0.20;0.20;;;;;;;19.99;35.17;101451.97;5149571;27;20111;-33
2022/03/03 06:08:55;;;;;;;0.20;0.20;;;;;;;19.99;35.14;101457.50;5127346;27;20043;-32
2022/03/03 06:11:23;;;;;;;0.20;0.20;;;;;;;19.96;35.22;101453.38;5144365;27;20422;-32
2022/03/03 06:13:52;;;;;;;0.20;0.20;;;;;;;19.95;35.23;101454.47;5144994;27;20654;-32
2022/03/03 06:16:19;;;;;;;0.20;0.20;;;;;;;19.95;35.00;101453.66;5149143;27;20084;-33
2022/03/03 06:18:47;;;;;;;0.20;0.20;;;;;;;19.95;35.38;101464.72;5146077;27;20165;-33
2022/03/03 06:21:15;;;;;;;0.20;0.20;;;;;;;19.94;35.40;101463.84;5145096;27;20152;-33
2022/03/03 06:23:41;;;;;;;0.20;0.20;;;;;;;19.95;35.32;101470.25;5143873;27;20069;-31
2022/03/03 06:26:11;;;;;;;0.20;0.20;;;;;;;19.94;35.10;101466.63;5131123;27;20074;-33
2022/03/03 06:28:37;;;;;;;0.20;0.20;;;;;;;19.95;35.24;101471.06;5123502;27;20079;-35
2022/03/03 06:31:04;;;;;;;0.20;0.20;;;;;;;19.95;35.31;101468.31;5119741;27;20061;-36
2022/03/03 06:33:30;;;;;;;0.20;0.20;;;;;;;19.94;35.50;101474.09;5124070;27;20116;-33
2022/03/03 06:35:56;;;;;;;0.20;0.20;;;;;;;19.94;35.32;101468.56;5104902;27;20040;-31
2022/03/03 06:38:22;;;;;;;0.20;0.20;;;;;;;19.94;34.95;101469.38;5118888;27;20447;-33
2022/03/03 06:40:48;;;;;;;0.20;0.20;;;;;;;19.93;35.06;101473.25;5114921;27;20073;-31
2022/03/03 06:43:14;;;;;;;0.20;0.20;;;;;;;19.94;35.42;101472.16;5121693;27;20035;-37
2022/03/03 06:45:39;;;;;;;0.20;0.20;;;;;;;19.93;35.20;101477.97;5119516;27;21231;-33
2022/03/03 06:48:06;;;;;;;0.20;0.20;;;;;;;19.94;34.99;101472.16;5119369;27;20044;-33
2022/03/03 06:50:38;;;;;;;0.20;0.20;;;;;;;19.94;35.34;101476.84;5119919;27;20063;-39
2022/03/03 06:53:04;;;;;;;0.20;0.20;;;;;;;19.93;35.32;101470.50;5120621;27;20075;-36
2022/03/03 06:55:30;;;;;;;0.20;0.20;;;;;;;19.92;35.05;101479.91;5117496;27;20046;-33
2022/03/03 06:57:58;;;;;;;0.20;0.20;;;;;;;19.94;35.13;101472.16;5096265;27;20093;-35
2022/03/03 07:00:27;;;;;;;0.10;0.10;;;;;;;19.95;35.01;101473.00;5122171;27;20430;-34
2022/03/03 07:02:53;;;;;;;0.20;0.20;;;;;;;19.95;35.16;101478.53;5112479;27;20075;-34
2022/03/03 07:05:20;;;;;;;0.20;0.20;;;;;;;19.92;35.17;101474.38;5112258;27;20423;-35
2022/03/03 07:07:48;;;;;;;0.20;0.20;;;;;;;19.93;34.89;101476.03;5113362;27;20071;-34
2022/03/03 07:10:19;;;;;;;0.20;0.20;;;;;;;19.93;35.09;101470.50;5114282;27;20040;-35
2022/03/03 07:12:45;;;;;;;0.20;0.20;;;;;;;19.93;34.81;101475.19;5092825;28;20079;-35
2022/03/03 07:15:11;;;;;;;0.20;0.20;;;;;;;19.94;34.93;101474.09;5081526;28;20051;-39
2022/03/03 07:20:36;;;;;;;0.20;0.20;;;;;;;19.94;35.04;101466.63;5153440;27;20602;-37
2022/03/03 07:23:05;;;;;;;0.20;0.20;;;;;;;19.92;34.88;101468.00;5150636;27;20042;-31
2022/03/03 07:25:37;;;;;;;;;;;;;;;19.93;34.66;101473.25;5152356;27;20051;-35
2022/03/03 07:28:06;;;;;;;0.20;0.20;;;;;;;19.91;35.09;101463.59;5148394;27;20373;-34
2022/03/03 07:30:31;;;;;;;0.20;0.20;;;;;;;19.93;35.06;101464.13;5143051;27;20437;-33
2022/03/03 07:33:07;;;;;;;0.20;0.20;;;;;;;19.92;35.15;101460.53;5145264;27;20061;-33
2022/03/03 07:35:34;;;;;;;0.20;0.20;;;;;;;19.93;34.78;101469.66;5153306;27;20084;-34
2022/03/03 07:38:19;;;;;;;0.20;0.20;;;;;;;19.93;34.65;101464.13;5150513;27;20129;-35
2022/03/03 07:40:48;;;;;;;0.20;0.20;;;;;;;19.92;34.85;101477.13;5150270;27;20050;-35
2022/03/03 07:43:15;;;;;;;0.20;0.20;;;;;;;19.74;30.89;101477.63;5149901;27;20066;-33
2022/03/03 07:45:43;;;;;;;0.20;0.20;;;;;;;19.85;32.81;101490.38;5155869;27;20046;-33
2022/03/03 07:48:10;;;;;;;0.20;0.20;;;;;;;19.92;33.07;101485.44;5149116;27;20081;-37
2022/03/03 07:50:39;;;;;;;0.20;0.20;;;;;;;19.92;33.32;101481.84;5130663;27;20055;-34
2022/03/03 07:53:10;;;;;;;0.20;0.20;;;;;;;19.94;33.20;101483.19;5145171;27;20445;-35
2022/03/03 07:55:43;;;;;;;0.20;0.20;;;;;;;19.95;33.45;101490.41;5132397;27;20035;-35
2022/03/03 07:58:13;;;;;;;0.20;0.20;;;;;;;19.96;33.26;101483.78;5147732;27;20058;-37
2022/03/03 08:00:43;;;;;;;0.20;0.20;;;;;;;19.97;33.69;101495.66;5144641;27;20129;-35
2022/03/03 08:03:13;;;;;;;0.20;0.20;;;;;;;19.99;33.37;101487.91;5138842;27;20051;-35
2022/03/03 08:05:39;;;;;;;0.20;0.20;;;;;;;19.82;32.23;101487.31;5143239;27;20062;-34
2022/03/03 08:08:08;;;;;;;0.17;0.17;;;;;;;19.95;32.48;101478.53;5139390;27;20057;-34
2022/03/03 08:10:35;;;;;;;0.20;0.20;;;;;;;19.98;32.81;101470.50;5138194;27;20126;-34
2022/03/03 08:13:01;;;;;;;0.20;0.20;;;;;;;20.00;32.95;101479.38;5139895;27;20107;-34
2022/03/03 08:15:27;;;;;;;0.20;0.20;;;;;;;20.02;33.02;101479.91;5141103;27;20141;-33
2022/03/03 08:17:54;;;;;;;0.20;0.20;;;;;;;20.03;32.85;101470.53;5135445;27;20057;-36
2022/03/03 08:20:21;;;;;;;0.20;0.20;;;;;;;20.04;33.14;101482.41;5148696;27;20070;-36
2022/03/03 08:22:50;;;;;;;0.20;0.20;;;;;;;20.04;32.75;101477.72;5146428;27;20042;-34
2022/03/03 08:25:17;;;;;;;0.20;0.20;;;;;;;20.05;32.98;101478.53;5146999;27;20078;-33
2022/03/03 08:27:43;;;;;;;0.20;0.20;;;;;;;20.05;33.37;101481.31;5128122;27;20078;-37
2022/03/03 08:30:10;;;;;;;0.20;0.20;;;;;;;20.07;33.33;101487.38;5142172;27;20039;-32
2022/03/03 08:32:39;;;;;;;0.20;0.20;;;;;;;20.07;33.38;101478.25;5130232;27;20085;-33
2022/03/03 08:35:14;;;;;;;0.20;0.20;;;;;;;20.09;33.50;101489.91;5138099;27;20994;-32
2022/03/03 08:37:43;;;;;;;0.20;0.20;;;;;;;20.08;33.26;101482.69;5131879;27;20043;-35
2022/03/03 08:40:12;;;;;;;0.17;0.17;;;;;;;20.09;33.15;101481.59;5136615;27;20123;-35
2022/03/03 08:42:41;;;;;;;0.20;0.20;;;;;;;20.08;33.32;101480.78;5128702;27;20305;-34
2022/03/03 08:45:10;;;;;;;0.20;0.20;;;;;;;20.09;33.41;101482.44;5135892;27;20611;-34
2022/03/03 08:47:37;;;;;;;0.20;0.20;;;;;;;20.09;33.37;101485.19;5133612;27;20070;-34
2022/03/03 08:50:10;;;;;;;0.20;0.20;;;;;;;20.11;33.61;101480.19;5133612;27;20077;-38
2022/03/03 08:52:55;;;;;;;0.20;0.20;;;;;;;20.13;33.33;101474.41;5134038;27;20304;-43
2022/03/03 08:55:21;;;;;;;0.15;0.15;;;;;;;20.13;33.47;101479.94;5137223;27;20055;-38
2022/03/03 08:57:47;;;;;;;0.20;0.20;;;;;;;20.14;33.63;101478.84;5133796;27;20084;-37
2022/03/03 09:00:13;;;;;;;0.20;0.20;;;;;;;20.15;33.73;101480.50;5133811;27;20246;-37
2022/03/03 09:02:40;;;;;;;0.20;0.20;;;;;;;20.14;33.32;101476.06;5131344;27;20825;-39
2022/03/03 09:05:07;;;;;;;0.20;0.20;;;;;;;20.14;33.50;101474.13;5133289;27;20469;-38
2022/03/03 09:07:32;;;;;;;0.20;0.20;;;;;;;20.16;33.48;101482.16;5130760;27;20042;-38
2022/03/03 09:09:58;;;;;;;0.20;0.20;;;;;;;20.16;33.79;101482.16;5133031;27;20064;-35
2022/03/03 09:12:24;;;;;;;0.20;0.20;;;;;;;20.15;33.79;101486.84;5123722;27;20051;-38
2022/03/03 09:14:50;;;;;;;0.20;0.20;;;;;;;20.17;33.65;101484.66;5129736;27;20047;-38
2022/03/03 09:17:15;;;;;;;0.20;0.20;;;;;;;20.15;33.56;101484.09;5127355;27;20038;-40
2022/03/03 09:19:41;;;;;;;0.20;0.20;;;;;;;20.17;33.71;101486.59;5132153;27;20141;-40
2022/03/03 09:22:07;;;;;;;0.20;0.20;;;;;;;20.17;33.49;101486.59;5127506;27;20043;-39
2022/03/03 09:24:33;;;;;;;0.20;0.20;;;;;;;20.17;33.79;101486.59;5133121;27;20031;-36
2022/03/03 09:26:58;;;;;;;0.20;0.20;;;;;;;20.17;33.73;101478.28;5132813;27;20051;-34
2022/03/03 09:29:24;;;;;;;0.20;0.20;;;;;;;20.18;33.68;101488.25;5131537;27;20066;-33
2022/03/03 09:31:50;;;;;;;0.20;0.20;;;;;;;20.17;33.76;101476.34;5109674;27;20163;-35
2022/03/03 09:34:16;;;;;;;0.20;0.20;;;;;;;20.18;33.61;101480.78;5132294;27;20049;-36
2022/03/03 09:36:47;;;;;;;0.20;0.20;;;;;;;20.17;33.81;101472.75;5114208;27;20500;-37
2022/03/03 09:39:12;;;;;;;0.15;0.15;;;;;;;20.18;33.38;101475.25;5124633;27;20051;-35
2022/03/03 09:41:38;;;;;;;0.20;0.20;;;;;;;20.18;33.52;101482.72;5122044;27;20050;-38
2022/03/03 09:44:04;;;;;;;0.20;0.20;;;;;;;20.18;33.31;101474.41;5122341;27;20061;-36
2022/03/03 09:46:30;;;;;;;0.20;0.20;;;;;;;20.18;33.49;101455.06;5133144;27;20439;-33
2022/03/03 09:48:55;;;;;;;0.20;0.20;;;;;;;20.16;33.27;101452.56;5134245;27;20488;-34
2022/03/03 09:51:21;;;;;;;0.20;0.20;;;;;;;20.18;33.54;101463.34;5126559;27;20038;-35
2022/03/03 09:53:49;;;;;;;0.20;0.20;;;;;;;20.17;33.16;101462.53;5133343;27;20138;-33
2022/03/03 09:56:15;;;;;;;0.20;0.20;;;;;;;20.17;33.35;101456.19;5129281;27;20082;-39
2022/03/03 09:58:41;;;;;;;0.20;0.20;;;;;;;20.16;33.25;101458.09;5132489;27;20050;-34
2022/03/03 10:01:07;;;;;;;0.20;0.20;;;;;;;20.16;33.48;101455.31;5126891;27;20043;-40
2022/03/03 10:03:33;;;;;;;0.20;0.20;;;;;;;20.15;33.46;101456.44;5133960;27;20114;-34
2022/03/03 10:06:00;;;;;;;0.10;0.10;;;;;;;20.16;33.69;101462.78;5135180;27;20122;-41
2022/03/03 10:08:28;;;;;;;0.20;0.20;;;;;;;20.16;33.36;101463.63;5139006;27;20039;-35
2022/03/03 10:10:57;;;;;;;0.13;0.13;;;;;;;20.15;33.41;101467.50;5132414;27;20055;-34
2022/03/03 10:13:23;;;;;;;0.20;0.20;;;;;;;20.15;33.66;101461.13;5130553;27;20043;-39
2022/03/03 10:15:56;;;;;;;0.20;0.20;;;;;;;20.15;33.53;101470.25;5133518;27;20594;-41
2022/03/03 10:18:23;;;;;;;0.20;0.20;;;;;;;20.15;33.38;101470.25;5131311;27;20042;-34
2022/03/03 10:20:57;;;;;;;0.20;0.20;;;;;;;20.17;33.39;101467.22;5133849;27;20039;-33
2022/03/03 10:23:37;;;;;;;0.20;0.20;;;;;;;20.16;33.72;101460.03;5136839;27;20128;-35
2022/03/03 10:26:07;;;;;;;0.20;0.20;;;;;;;20.16;33.58;101463.63;5132762;27;20048;-35
2022/03/03 10:28:35;;;;;;;0.10;0.10;;;;;;;20.15;33.47;101470.25;5131088;27;20615;-34
2022/03/03 10:31:04;;;;;;;0.15;0.15;;;;;;;20.15;33.63;101461.97;5128368;27;20094;-36
2022/03/03 10:33:33;;;;;;;0.20;0.20;;;;;;;20.15;33.72;101450.06;5117259;27;20111;-41
2022/03/03 10:36:24;;;;;;;0.20;0.20;;;;;;;20.14;33.75;101452.00;5126237;27;20673;-37
2022/03/03 10:38:53;;;;;;;0.20;0.20;;;;;;;20.15;33.59;101455.59;5129199;27;20476;-37
2022/03/03 10:41:40;;;;;;;0.20;0.20;;;;;;;20.16;33.41;101452.56;5123916;27;20466;-38
2022/03/03 10:44:15;;;;;;;0.20;0.20;;;;;;;20.14;33.64;101449.25;5116902;27;20046;-34
2022/03/03 10:47:16;;;;;;;0.20;0.20;;;;;;;20.14;33.40;101440.13;5127225;27;20126;-34
2022/03/03 10:49:44;;;;;;;0.20;0.20;;;;;;;20.08;33.00;101444.81;5130287;27;20499;-34
2022/03/03 10:52:19;;;;;;;0.10;0.10;;;;;;;20.10;32.70;101436.25;5110775;27;20054;-37
2022/03/03 10:55:17;;;;;;;0.20;0.20;;;;;;;20.16;32.67;101435.13;5130492;27;20093;-34
2022/03/03 10:57:51;;;;;;;0.20;0.20;;;;;;;19.99;26.63;101438.16;5131002;27;20820;-38
2022/03/03 11:00:23;;;;;;;0.20;0.20;;;;;;;20.07;30.09;101434.84;5129161;27;20082;-34
2022/03/03 11:02:51;;;;;;;0.20;0.20;;;;;;;20.16;29.59;101426.84;5135786;27;20469;-38
2022/03/03 11:05:18;;;;;;;0.10;0.10;;;;;;;20.20;29.79;101439.84;5112710;27;20047;-37
2022/03/03 11:07:46;;;;;;;0.20;0.20;;;;;;;20.21;30.22;101429.63;5132714;27;20235;-40
2022/03/03 11:10:17;;;;;;;0.20;0.20;;;;;;;20.22;31.05;101431.28;5117767;27;20054;-35
2022/03/03 11:12:43;;;;;;;0.20;0.20;;;;;;;20.22;31.35;101434.06;5131342;27;20753;-35
2022/03/03 11:15:10;;;;;;;0.20;0.20;;;;;;;20.23;31.15;101435.69;5113989;27;20137;-37
2022/03/03 11:17:36;;;;;;;0.20;0.20;;;;;;;20.24;31.42;101434.59;5136382;27;20152;-40
2022/03/03 11:20:03;;;;;;;0.20;0.20;;;;;;;20.24;31.59;101432.66;5128488;27;20057;-35
2022/03/03 11:22:31;;;;;;;0.20;0.20;;;;;;;20.25;31.67;101437.09;5133768;27;20489;-35
2022/03/03 11:24:58;;;;;;;0.20;0.20;;;;;;;20.27;32.01;101436.81;5132539;27;20047;-35
2022/03/03 11:27:33;;;;;;;0.20;0.20;;;;;;;20.26;31.85;101438.75;5131174;27;20475;-35
2022/03/03 11:30:28;;;;;;;0.20;0.20;;;;;;;20.28;32.03;101439.28;5129764;27;20053;-37
2022/03/03 11:35:58;;;;;;;0.20;0.20;;;;;;;20.31;32.32;101437.91;5147072;27;20210;-34